createdAt,value
2022-09-28T00:01:22.020Z,14.95
2022-09-28T00:03:51.892Z,14.50
2022-09-28T00:06:22.059Z,17.40
2022-09-28T00:08:52.664Z,13.88
2022-09-28T00:11:21.882Z,12.77
2022-09-28T00:13:51.811Z,20.65
2022-09-28T00:16:23.366Z,15.70
2022-09-28T00:18:51.578Z,17.10
2022-09-28T00:21:22.459Z,19.23
2022-09-28T00:24:15.004Z,15.57
2022-09-28T00:26:50.470Z,20.02
2022-09-28T00:29:22.672Z,12.50
2022-09-28T00:32:03.057Z,13.05
2022-09-28T00:34:33.891Z,14.65
2022-09-28T00:37:03.500Z,16.77
2022-09-28T00:39:35.989Z,22.02
2022-09-28T00:42:05.622Z,10.95
2022-09-28T00:44:41.757Z,12.73
2022-09-28T00:47:45.551Z,16.80
2022-09-28T00:50:25.771Z,11.13
2022-09-28T00:52:53.330Z,16.58
2022-09-28T00:55:44.867Z,14.80
2022-09-28T00:58:19.517Z,13.65
2022-09-28T01:00:48.532Z,19.55
2022-09-28T01:03:17.200Z,13.10
2022-09-28T01:05:45.960Z,17.30
2022-09-28T01:08:14.403Z,20.77
2022-09-28T01:10:43.871Z,18.58
2022-09-28T01:13:13.804Z,11.75
2022-09-28T01:15:59.788Z,15.15
2022-09-28T01:19:00.519Z,13.25
2022-09-28T01:21:49.135Z,23.92
2022-09-28T01:24:43.412Z,18.58
2022-09-28T01:27:14.023Z,17.05
2022-09-28T01:29:53.517Z,15.60
2022-09-28T01:32:35.836Z,14.82
2022-09-28T01:35:26.394Z,35.25
2022-09-28T01:38:05.308Z,15.18
2022-09-28T01:40:35.236Z,16.17
2022-09-28T01:43:06.928Z,18.60
2022-09-28T01:45:49.221Z,12.48
2022-09-28T01:48:24.984Z,16.27
2022-09-28T01:50:58.132Z,11.70
2022-09-28T01:53:32.317Z,14.70
2022-09-28T01:56:10.125Z,21.13
2022-09-28T01:58:44.169Z,14.27
2022-09-28T02:01:31.933Z,12.68
2022-09-28T02:04:14.346Z,15.98
2022-09-28T02:07:12.868Z,12.27
2022-09-28T02:09:58.633Z,14.85
2022-09-28T02:12:48.843Z,103.07
2022-09-28T02:15:36.291Z,21.92
2022-09-28T02:18:04.380Z,19.90
2022-09-28T02:20:34.491Z,21.58
2022-09-28T02:23:04.659Z,18.33
2022-09-28T02:25:45.689Z,18.15
2022-09-28T02:28:14.218Z,16.92
2022-09-28T02:33:20.193Z,16.58
2022-09-28T02:35:48.910Z,22.10
2022-09-28T02:38:18.393Z,15.75
2022-09-28T02:40:57.780Z,20.88
2022-09-28T02:43:45.475Z,25.50
2022-09-28T02:46:35.651Z,17.20
2022-09-28T02:49:31.206Z,19.15
2022-09-28T02:52:23.041Z,21.95
2022-09-28T02:55:06.374Z,22.45
2022-09-28T02:58:12.375Z,19.25
2022-09-28T03:01:07.116Z,20.00
2022-09-28T03:03:47.871Z,27.70
2022-09-28T03:06:44.002Z,26.42
2022-09-28T03:09:12.252Z,26.20
2022-09-28T03:11:53.138Z,27.55
2022-09-28T03:14:21.328Z,18.02
2022-09-28T03:16:57.914Z,20.38
2022-09-28T03:19:33.466Z,18.65
2022-09-28T03:22:01.923Z,16.80
2022-09-28T03:24:29.551Z,21.75
2022-09-28T03:26:57.151Z,27.75
2022-09-28T03:29:24.837Z,21.05
2022-09-28T03:31:58.899Z,26.88
2022-09-28T03:34:26.522Z,18.73
2022-09-28T03:36:54.213Z,23.98
2022-09-28T03:39:22.228Z,29.30
2022-09-28T03:41:49.733Z,28.73
2022-09-28T03:44:19.772Z,133.27
2022-09-28T03:46:48.685Z,41.78
2022-09-28T03:49:16.378Z,25.52
2022-09-28T03:52:19.705Z,26.70
2022-09-28T03:54:49.361Z,361.77
2022-09-28T03:57:17.313Z,22.90
2022-09-28T03:59:44.921Z,32.30
2022-09-28T04:02:12.521Z,431.08
2022-09-28T04:04:40.652Z,82.20
2022-09-28T04:07:08.547Z,20.08
2022-09-28T04:09:36.192Z,172.57
2022-09-28T04:12:04.658Z,220.63
2022-09-28T04:14:33.834Z,17.40
2022-09-28T04:17:01.780Z,25.73
2022-09-28T04:19:31.926Z,25.98
2022-09-28T04:22:18.987Z,27.27
2022-09-28T04:24:46.808Z,28.35
2022-09-28T04:27:33.390Z,338.00
2022-09-28T04:30:03.064Z,25.00
2022-09-28T04:32:34.075Z,31.20
2022-09-28T04:37:31.339Z,37.97
2022-09-28T04:39:59.033Z,216.00
2022-09-28T04:42:26.975Z,288.83
2022-09-28T04:44:54.630Z,28.45
2022-09-28T04:47:22.705Z,22.05
2022-09-28T04:50:22.602Z,75.25
2022-09-28T04:53:18.626Z,32.45
2022-09-28T04:58:23.374Z,116.47
2022-09-28T05:00:51.851Z,78.45
2022-09-28T05:03:42.529Z,24.65
2022-09-28T05:06:28.653Z,31.38
2022-09-28T05:09:02.846Z,31.63
2022-09-28T05:11:30.797Z,29.88
2022-09-28T05:16:26.887Z,246.60
2022-09-28T05:19:12.959Z,285.73
2022-09-28T05:21:46.028Z,314.73
2022-09-28T05:24:13.870Z,259.10
2022-09-28T05:26:44.876Z,412.83
2022-09-28T05:29:12.590Z,73.25
2022-09-28T05:31:40.445Z,87.38
2022-09-28T05:34:19.842Z,69.20
2022-09-28T05:36:47.543Z,237.13
2022-09-28T05:39:15.196Z,308.08
2022-09-28T05:41:42.821Z,187.30
2022-09-28T05:44:11.023Z,221.13
2022-09-28T05:46:38.615Z,124.82
2022-09-28T05:49:06.246Z,130.32
2022-09-28T05:51:33.798Z,115.60
2022-09-28T05:54:05.689Z,241.57
2022-09-28T05:56:35.773Z,302.17
2022-09-28T05:59:06.292Z,181.60
2022-09-28T06:01:34.658Z,234.02
2022-09-28T06:04:03.458Z,278.55
2022-09-28T06:06:32.591Z,198.15
2022-09-28T06:09:00.422Z,191.18
2022-09-28T06:11:35.316Z,139.35
2022-09-28T06:14:09.689Z,84.18
2022-09-28T06:16:41.644Z,108.32
2022-09-28T06:19:12.396Z,145.60
2022-09-28T06:22:08.866Z,67.57
2022-09-28T06:24:45.566Z,88.57
2022-09-28T06:27:13.428Z,237.07
2022-09-28T06:29:40.907Z,109.78
2022-09-28T06:32:09.069Z,142.60
2022-09-28T06:34:38.687Z,187.15
2022-09-28T06:37:06.305Z,222.18
2022-09-28T06:39:34.215Z,102.13
2022-09-28T06:42:03.399Z,85.00
2022-09-28T06:44:51.893Z,76.90
2022-09-28T06:47:33.458Z,192.13
2022-09-28T06:50:14.551Z,191.35
2022-09-28T06:53:07.341Z,69.88
2022-09-28T06:55:56.165Z,96.47
2022-09-28T06:58:24.280Z,93.72
2022-09-28T07:00:52.377Z,182.50
2022-09-28T07:03:22.804Z,71.10
2022-09-28T07:06:12.148Z,87.18
2022-09-28T07:09:18.408Z,89.13
2022-09-28T07:12:13.213Z,53.40
2022-09-28T07:15:02.532Z,82.35
2022-09-28T07:17:32.049Z,89.13
2022-09-28T07:20:15.515Z,64.20
2022-09-28T07:22:47.996Z,54.00
2022-09-28T07:25:20.498Z,39.90
2022-09-28T07:28:14.636Z,47.38
2022-09-28T07:31:03.454Z,48.95
2022-09-28T07:34:00.299Z,40.55
2022-09-28T07:36:36.630Z,62.63
2022-09-28T07:39:04.468Z,48.88
2022-09-28T07:41:35.128Z,57.47
2022-09-28T07:44:06.928Z,59.72
2022-09-28T07:46:37.207Z,74.45
2022-09-28T07:49:12.378Z,66.00
2022-09-28T07:52:13.047Z,78.30
2022-09-28T07:55:02.219Z,85.70
2022-09-28T07:58:05.155Z,65.47
2022-09-28T08:00:50.399Z,63.60
2022-09-28T08:03:20.258Z,82.13
2022-09-28T08:05:48.205Z,66.90
2022-09-28T08:08:16.506Z,79.40
2022-09-28T08:10:47.292Z,59.70
2022-09-28T08:13:39.072Z,21.35
2022-09-28T08:19:15.206Z,17.73
2022-09-28T08:21:45.562Z,9.23
2022-09-28T08:24:15.822Z,11.00
2022-09-28T08:26:44.744Z,15.05
2022-09-28T08:29:16.219Z,14.73
2022-09-28T08:31:52.468Z,11.02
2022-09-28T08:34:41.562Z,13.30
2022-09-28T08:37:31.016Z,14.95
2022-09-28T08:43:07.419Z,11.27
2022-09-28T08:46:10.202Z,12.60
2022-09-28T08:49:24.854Z,13.65
2022-09-28T08:52:17.989Z,12.10
2022-09-28T08:55:31.289Z,11.32
2022-09-28T08:58:20.446Z,7.00
2022-09-28T09:00:54.296Z,17.45
2022-09-28T09:03:42.626Z,12.70
2022-09-28T09:07:04.662Z,11.55
2022-09-28T09:10:00.017Z,7.25
2022-09-28T09:15:31.293Z,12.77
2022-09-28T09:18:14.589Z,12.43
2022-09-28T09:21:10.436Z,14.07
2022-09-28T09:24:02.926Z,9.98
2022-09-28T09:26:39.652Z,10.85
2022-09-28T09:29:36.573Z,9.90
2022-09-28T09:32:08.233Z,10.05
2022-09-28T09:34:46.947Z,16.23
2022-09-28T09:37:58.625Z,13.00
2022-09-28T09:41:10.351Z,6.45
2022-09-28T09:44:11.875Z,4.22
2022-09-28T09:47:04.898Z,10.60
2022-09-28T09:49:45.853Z,5.10
2022-09-28T09:55:04.132Z,14.90
2022-09-28T09:57:53.157Z,11.18
2022-09-28T10:00:47.458Z,6.40
2022-09-28T10:03:31.191Z,11.10
2022-09-28T10:06:36.425Z,6.47
2022-09-28T10:09:13.617Z,7.57
2022-09-28T10:11:44.870Z,5.70
2022-09-28T10:14:21.526Z,9.13
2022-09-28T10:17:03.951Z,10.30
2022-09-28T10:20:04.237Z,11.55
2022-09-28T10:22:56.676Z,5.05
2022-09-28T10:25:25.198Z,7.90
2022-09-28T10:27:52.902Z,6.75
2022-09-28T10:32:59.292Z,8.43
2022-09-28T10:35:42.164Z,9.02
2022-09-28T10:38:19.018Z,12.43
2022-09-28T10:40:59.482Z,5.75
2022-09-28T10:43:50.712Z,8.43
2022-09-28T10:46:24.430Z,10.45
2022-09-28T10:49:15.663Z,11.63
2022-09-28T10:51:56.612Z,9.02
2022-09-28T10:54:38.804Z,14.35
2022-09-28T10:57:42.915Z,13.85
2022-09-28T11:00:34.766Z,14.77
2022-09-28T11:03:26.595Z,10.35
2022-09-28T11:06:00.190Z,9.30
2022-09-28T11:08:45.823Z,9.60
2022-09-28T11:11:22.226Z,8.32
2022-09-28T11:14:01.453Z,7.85
2022-09-28T11:16:35.103Z,10.38
2022-09-28T11:19:28.959Z,8.70
2022-09-28T11:21:56.516Z,7.25
2022-09-28T11:24:33.342Z,5.30
2022-09-28T11:27:04.358Z,7.05
2022-09-28T11:29:43.041Z,9.00
2022-09-28T11:32:25.697Z,4.78
2022-09-28T11:35:28.094Z,7.68
2022-09-28T11:38:15.402Z,7.43
2022-09-28T11:41:25.962Z,4.60
2022-09-28T11:44:15.365Z,3.67
2022-09-28T11:46:46.241Z,9.32
2022-09-28T11:49:20.061Z,10.45
2022-09-28T11:51:49.815Z,4.88
2022-09-28T11:54:38.688Z,4.65
2022-09-28T11:57:14.863Z,8.15
2022-09-28T12:00:01.252Z,4.22
2022-09-28T12:02:35.478Z,4.15
2022-09-28T12:05:27.041Z,3.95
2022-09-28T12:08:20.842Z,8.18
2022-09-28T12:11:39.197Z,3.10
2022-09-28T12:14:34.411Z,4.47
2022-09-28T12:17:23.809Z,6.10
2022-09-28T12:19:58.568Z,5.28
2022-09-28T12:22:34.954Z,3.30
2022-09-28T12:25:05.135Z,2.60
2022-09-28T12:27:43.796Z,2.80
2022-09-28T12:30:25.220Z,2.35
2022-09-28T12:33:04.100Z,2.05
2022-09-28T12:35:34.749Z,4.15
2022-09-28T12:38:21.279Z,1.58
2022-09-28T12:41:07.849Z,3.00
2022-09-28T12:44:09.950Z,2.67
2022-09-28T12:46:46.790Z,1.60
2022-09-28T12:52:32.607Z,2.45
2022-09-28T12:55:17.411Z,1.73
2022-09-28T12:58:22.305Z,2.50
2022-09-28T13:01:22.145Z,2.10
2022-09-28T13:04:27.235Z,2.13
2022-09-28T13:07:15.995Z,1.25
2022-09-28T13:10:14.748Z,1.83
2022-09-28T13:13:13.438Z,1.95
2022-09-28T13:15:43.924Z,1.88
2022-09-28T13:18:16.185Z,2.63
2022-09-28T13:21:10.053Z,3.92
2022-09-28T13:23:47.092Z,2.00
2022-09-28T13:26:17.637Z,2.15
2022-09-28T13:28:47.185Z,1.20
2022-09-28T13:31:22.181Z,1.95
2022-09-28T13:33:51.374Z,2.40
2022-09-28T13:36:28.012Z,4.03
2022-09-28T13:38:59.543Z,1.35
2022-09-28T13:41:36.691Z,2.08
2022-09-28T13:44:07.059Z,1.30
2022-09-28T13:47:12.708Z,1.35
2022-09-28T13:50:08.005Z,1.92
2022-09-28T13:52:50.569Z,3.42
2022-09-28T13:55:27.011Z,2.17
2022-09-28T13:58:15.596Z,3.80
2022-09-28T14:01:05.005Z,2.15
2022-09-28T14:03:54.707Z,1.02
2022-09-28T14:06:31.974Z,2.40
2022-09-28T14:09:09.152Z,2.22
2022-09-28T14:11:37.185Z,3.08
2022-09-28T14:14:11.949Z,2.03
2022-09-28T14:16:41.137Z,2.60
2022-09-28T14:19:09.138Z,3.60
2022-09-28T14:21:47.983Z,4.97
2022-09-28T14:24:26.614Z,1.42
2022-09-28T14:26:54.124Z,2.00
2022-09-28T14:29:28.481Z,5.03
2022-09-28T14:32:09.057Z,1.88
2022-09-28T14:34:41.241Z,0.57
2022-09-28T14:37:46.020Z,1.85
2022-09-28T14:40:36.714Z,1.55
2022-09-28T14:43:26.340Z,1.17
2022-09-28T14:46:20.082Z,3.92
2022-09-28T14:48:54.451Z,1.10
2022-09-28T14:51:30.381Z,1.42
2022-09-28T14:54:03.485Z,0.95
2022-09-28T14:56:40.315Z,3.20
2022-09-28T14:59:18.382Z,1.55
2022-09-28T15:01:52.194Z,1.70
2022-09-28T15:04:20.805Z,1.13
2022-09-28T15:06:50.531Z,1.10
2022-09-28T15:09:35.365Z,2.72
2022-09-28T15:12:10.263Z,1.75
2022-09-28T15:14:51.326Z,1.95
2022-09-28T15:17:29.327Z,2.53
2022-09-28T15:20:06.239Z,1.73
2022-09-28T15:22:34.158Z,2.58
2022-09-28T15:27:36.478Z,1.15
2022-09-28T15:30:25.329Z,2.83
2022-09-28T15:32:56.739Z,0.82
2022-09-28T15:35:28.453Z,1.65
2022-09-28T15:37:56.317Z,1.00
2022-09-28T15:40:33.628Z,1.55
2022-09-28T15:43:02.579Z,1.15
2022-09-28T15:45:40.004Z,0.60
2022-09-28T15:48:32.920Z,5.18
2022-09-28T15:51:10.266Z,3.15
2022-09-28T15:53:56.210Z,3.78
2022-09-28T15:56:24.764Z,2.55
2022-09-28T15:59:18.870Z,1.70
2022-09-28T16:01:47.746Z,2.05
2022-09-28T16:04:34.052Z,1.65
2022-09-28T16:07:20.790Z,2.80
2022-09-28T16:10:12.047Z,1.97
2022-09-28T16:12:56.532Z,2.38
2022-09-28T16:15:37.147Z,1.42
2022-09-28T16:18:22.049Z,1.80
2022-09-28T16:20:52.665Z,1.70
2022-09-28T16:23:21.982Z,4.63
2022-09-28T16:25:52.577Z,1.80
2022-09-28T16:28:38.247Z,1.92
2022-09-28T16:31:15.065Z,1.65
2022-09-28T16:33:52.510Z,2.10
2022-09-28T16:36:22.374Z,5.97
2022-09-28T16:38:50.168Z,1.02
2022-09-28T16:41:21.791Z,1.23
2022-09-28T16:43:55.191Z,0.90
2022-09-28T16:46:29.703Z,1.25
2022-09-28T16:49:00.117Z,1.98
2022-09-28T16:51:28.610Z,1.33
2022-09-28T16:54:34.767Z,2.28
2022-09-28T16:57:04.289Z,1.70
2022-09-28T16:59:32.610Z,2.72
2022-09-28T17:02:00.443Z,1.50
2022-09-28T17:04:28.279Z,1.30
2022-09-28T17:06:56.539Z,2.08
2022-09-28T17:09:24.276Z,1.25
2022-09-28T17:11:57.050Z,1.48
2022-09-28T17:14:25.318Z,1.63
2022-09-28T17:17:13.740Z,1.17
2022-09-28T17:19:42.406Z,0.40
2022-09-28T17:22:10.541Z,2.50
2022-09-28T17:24:38.115Z,1.67
2022-09-28T17:27:07.039Z,5.03
2022-09-28T17:29:34.657Z,1.10
2022-09-28T17:32:02.753Z,4.30
2022-09-28T17:34:30.770Z,2.35
2022-09-28T17:39:26.561Z,2.50
2022-09-28T17:41:54.300Z,2.20
2022-09-28T17:44:22.170Z,3.33
2022-09-28T17:46:51.242Z,2.20
2022-09-28T17:49:19.237Z,3.28
2022-09-28T17:51:47.438Z,2.88
2022-09-28T17:54:16.951Z,1.00
2022-09-28T17:56:44.801Z,2.97
2022-09-28T17:59:18.192Z,1.25
2022-09-28T18:01:45.973Z,1.42
2022-09-28T18:04:33.275Z,3.40
2022-09-28T18:07:02.546Z,1.45
2022-09-28T18:09:30.348Z,3.13
2022-09-28T18:14:31.414Z,4.43
2022-09-28T18:16:59.312Z,4.35
2022-09-28T18:19:31.170Z,2.95
2022-09-28T18:22:01.520Z,4.57
2022-09-28T18:24:29.674Z,2.85
2022-09-28T18:26:57.571Z,5.50
2022-09-28T18:29:25.274Z,1.52
2022-09-28T18:31:53.032Z,4.38
2022-09-28T18:34:21.050Z,20.23
2022-09-28T18:36:48.451Z,7.20
2022-09-28T18:39:16.162Z,2.78
2022-09-28T18:41:44.118Z,3.35
2022-09-28T18:44:12.165Z,7.93
2022-09-28T18:46:42.850Z,3.10
2022-09-28T18:49:10.662Z,5.13
2022-09-28T18:51:38.693Z,5.65
2022-09-28T18:54:07.642Z,4.57
2022-09-28T18:56:37.884Z,6.32
2022-09-28T18:59:11.738Z,6.18
2022-09-28T19:01:41.855Z,6.72
2022-09-28T19:04:11.578Z,9.07
2022-09-28T19:06:42.069Z,8.00
2022-09-28T19:11:35.201Z,5.00
2022-09-28T19:14:03.690Z,8.80
2022-09-28T19:16:34.237Z,7.18
2022-09-28T19:19:03.366Z,4.47
2022-09-28T19:21:31.383Z,3.97
2022-09-28T19:24:03.038Z,3.88
2022-09-28T19:26:31.368Z,4.28
2022-09-28T19:29:00.297Z,3.10
2022-09-28T19:31:30.337Z,4.28
2022-09-28T19:33:58.436Z,4.35
2022-09-28T19:36:28.676Z,4.22
2022-09-28T19:38:58.197Z,4.65
2022-09-28T19:42:06.240Z,5.93
2022-09-28T19:44:35.766Z,2.72
2022-09-28T19:47:10.162Z,2.25
2022-09-28T19:49:40.744Z,3.60
2022-09-28T19:52:16.999Z,4.45
2022-09-28T19:54:55.799Z,3.10
2022-09-28T19:57:30.547Z,3.85
2022-09-28T20:00:02.773Z,4.72
2022-09-28T20:02:37.457Z,4.15
2022-09-28T20:05:06.902Z,3.30
2022-09-28T20:07:36.664Z,3.53
2022-09-28T20:10:05.720Z,3.47
2022-09-28T20:12:34.900Z,3.88
2022-09-28T20:15:03.566Z,3.20
2022-09-28T20:17:32.756Z,4.13
2022-09-28T20:20:03.831Z,4.03
2022-09-28T20:22:32.700Z,5.30
2022-09-28T20:25:03.061Z,4.47
2022-09-28T20:27:31.993Z,4.38
2022-09-28T20:30:00.522Z,6.97
2022-09-28T20:32:32.686Z,3.10
2022-09-28T20:35:02.309Z,4.35
2022-09-28T20:37:31.049Z,5.68
2022-09-28T20:40:00.963Z,4.93
2022-09-28T20:42:30.147Z,5.30
2022-09-28T20:44:58.328Z,3.75
2022-09-28T20:49:53.508Z,4.82
2022-09-28T20:52:21.071Z,3.83
2022-09-28T20:54:48.616Z,3.08
2022-09-28T20:57:19.127Z,6.28
2022-09-28T20:59:50.990Z,5.72
2022-09-28T21:02:22.518Z,5.93
2022-09-28T21:04:50.169Z,4.00
2022-09-28T21:07:17.834Z,4.80
2022-09-28T21:09:45.371Z,10.07
2022-09-28T21:12:13.821Z,6.47
2022-09-28T21:14:41.392Z,4.85
2022-09-28T21:17:08.946Z,5.50
2022-09-28T21:19:37.118Z,3.80
2022-09-28T21:22:04.647Z,3.72
2022-09-28T21:24:32.208Z,3.70
2022-09-28T21:26:59.907Z,2.63
2022-09-28T21:29:28.007Z,3.38
2022-09-28T21:31:55.762Z,4.25
2022-09-28T21:34:24.465Z,3.63
2022-09-28T21:36:52.645Z,7.72
2022-09-28T21:39:20.985Z,5.05
2022-09-28T21:41:48.441Z,4.22
2022-09-28T21:44:16.657Z,6.47
2022-09-28T21:46:44.421Z,4.50
2022-09-28T21:49:13.443Z,3.70
2022-09-28T21:51:41.220Z,5.07
2022-09-28T21:54:08.814Z,10.80
2022-09-28T21:56:36.738Z,7.35
2022-09-28T21:59:04.295Z,13.07
2022-09-28T22:01:32.319Z,3.25
2022-09-28T22:04:00.183Z,5.50
2022-09-28T22:06:28.350Z,4.38
2022-09-28T22:08:56.913Z,6.97
2022-09-28T22:11:27.480Z,5.75
2022-09-28T22:13:59.710Z,9.35
2022-09-28T22:16:30.390Z,11.90
2022-09-28T22:18:59.575Z,8.55
2022-09-28T22:21:32.938Z,9.40
2022-09-28T22:24:06.666Z,9.52
2022-09-28T22:26:36.394Z,7.47
2022-09-28T22:29:09.280Z,6.57
2022-09-28T22:32:02.127Z,8.73
2022-09-28T22:34:31.759Z,9.40
2022-09-28T22:36:59.661Z,8.73
2022-09-28T22:39:27.303Z,9.65
2022-09-28T22:41:55.155Z,11.45
2022-09-28T22:44:22.802Z,8.82
2022-09-28T22:46:50.611Z,12.43
2022-09-28T22:49:18.523Z,12.75
2022-09-28T22:51:46.366Z,10.07
2022-09-28T22:54:16.764Z,10.95
2022-09-28T22:56:44.386Z,10.05
2022-09-28T22:59:12.505Z,9.43
2022-09-28T23:01:40.166Z,15.73
2022-09-28T23:04:09.609Z,11.13
2022-09-28T23:06:37.317Z,11.50
2022-09-28T23:09:05.251Z,16.25
2022-09-28T23:11:32.885Z,11.15
2022-09-28T23:14:00.882Z,13.35
2022-09-28T23:18:58.193Z,14.63
2022-09-28T23:21:27.422Z,16.15
2022-09-28T23:24:01.692Z,16.27
2022-09-28T23:26:34.401Z,12.20
2022-09-28T23:29:02.029Z,12.30
2022-09-28T23:31:32.113Z,14.18
2022-09-28T23:34:01.820Z,11.90
2022-09-28T23:36:30.106Z,14.68
2022-09-28T23:41:25.766Z,14.50
2022-09-28T23:43:54.016Z,16.77
2022-09-28T23:46:21.919Z,8.65
2022-09-28T23:48:50.234Z,14.77
2022-09-28T23:51:18.364Z,14.18
2022-09-28T23:53:46.431Z,17.42
2022-09-28T23:58:42.339Z,28.98
